Time;durP1;ratioP1;P1;durP2;ratioP2;P2;SDS_P1;SDS_P2;PMS_P1;PMS_P2;Temp;Humidity;BMP_temperature;BMP_pressure;BME280_temperature;BME280_humidity;BME280_pressure;Samples;Min_cycle;Max_cycle;Signal;HPM_P1;HPM_P2
2022/04/20 00:00:34;;;;;;;6.95;4.93;;;10.90;99.90;;;;;;5035806;28;20025;-61
2022/04/20 00:03:00;;;;;;;4.85;3.85;;;11.00;99.90;;;;;;5035835;28;20026;-62
2022/04/20 00:05:25;;;;;;;6.30;3.88;;;11.10;99.90;;;;;;5035960;28;20380;-62
2022/04/20 00:07:51;;;;;;;4.55;3.95;;;11.10;99.90;;;;;;5036093;28;20029;-63
2022/04/20 00:10:17;;;;;;;6.25;5.15;;;11.20;99.90;;;;;;5035679;28;20029;-63
2022/04/20 00:12:43;;;;;;;5.85;5.15;;;11.20;99.90;;;;;;5035289;28;20022;-61
2022/04/20 00:15:09;;;;;;;6.93;5.30;;;11.10;99.90;;;;;;5035897;28;20103;-62
2022/04/20 00:17:35;;;;;;;10.35;7.82;;;11.10;99.90;;;;;;5035487;28;20079;-61
2022/04/20 00:20:01;;;;;;;20.45;13.35;;;11.10;99.90;;;;;;5033997;28;20510;-61
2022/04/20 00:22:27;;;;;;;22.00;14.75;;;10.80;99.90;;;;;;5035707;28;20026;-63
2022/04/20 00:24:52;;;;;;;14.75;10.80;;;10.60;99.90;;;;;;5035425;28;20369;-61
2022/04/20 00:27:18;;;;;;;18.95;12.98;;;10.50;99.90;;;;;;5035029;28;20388;-62
2022/04/20 00:29:44;;;;;;;19.02;11.70;;;10.60;99.90;;;;;;5035261;28;20096;-62
2022/04/20 00:32:10;;;;;;;18.73;12.40;;;10.50;99.90;;;;;;5035362;28;20659;-62
2022/04/20 00:34:35;;;;;;;16.83;12.50;;;10.30;99.90;;;;;;5035202;28;20521;-63
2022/04/20 00:37:01;;;;;;;16.13;11.85;;;10.10;99.90;;;;;;5035184;28;20076;-63
2022/04/20 00:39:27;;;;;;;16.08;11.45;;;9.90;99.90;;;;;;5035145;28;20056;-63
2022/04/20 00:41:53;;;;;;;16.55;11.75;;;9.90;99.90;;;;;;5034858;28;20025;-63
2022/04/20 00:44:20;;;;;;;12.45;9.55;;;9.70;99.90;;;;;;5035157;28;20025;-61
2022/04/20 00:46:47;;;;;;;13.00;9.05;;;9.60;99.90;;;;;;5034834;28;20372;-62
2022/04/20 00:49:14;;;;;;;12.88;9.30;;;9.60;99.90;;;;;;5034892;28;20025;-62
2022/04/20 00:52:00;;;;;;;15.80;10.90;;;9.50;99.90;;;;;;5034750;28;20022;-61
2022/04/20 00:54:26;;;;;;;16.02;10.38;;;9.70;99.90;;;;;;5034786;28;20115;-63
2022/04/20 00:56:51;;;;;;;18.38;10.75;;;9.80;99.90;;;;;;5034482;28;20104;-62
2022/04/20 00:59:27;;;;;;;13.40;9.05;;;10.00;99.90;;;;;;5034587;28;20035;-62
2022/04/20 01:01:52;;;;;;;24.05;14.57;;;10.20;99.90;;;;;;5034924;28;20033;-61
2022/04/20 01:04:18;;;;;;;17.73;11.25;;;10.30;99.90;;;;;;5034481;28;20380;-62
2022/04/20 01:06:49;;;;;;;13.90;9.48;;;10.30;99.90;;;;;;5034413;28;20033;-63
2022/04/20 01:09:15;;;;;;;12.15;8.57;;;10.40;99.90;;;;;;5034545;28;20029;-62
2022/04/20 01:11:41;;;;;;;13.30;7.55;;;10.40;99.90;;;;;;5034467;28;20044;-61
2022/04/20 01:14:08;;;;;;;16.67;8.15;;;10.50;99.90;;;;;;5034693;28;20436;-62
2022/04/20 01:16:33;;;;;;;10.52;6.32;;;10.50;99.90;;;;;;5034411;28;20022;-62
2022/04/20 01:19:01;;;;;;;9.02;5.80;;;10.50;99.90;;;;;;5034140;28;20132;-61
2022/04/20 01:21:27;;;;;;;9.80;7.25;;;10.50;99.90;;;;;;5034268;28;20040;-61
2022/04/20 01:23:53;;;;;;;6.07;4.82;;;10.50;99.90;;;;;;5034487;28;20376;-61
2022/04/20 01:26:19;;;;;;;6.50;5.00;;;10.40;99.90;;;;;;5034081;28;20479;-63
2022/04/20 01:28:46;;;;;;;6.47;4.30;;;10.40;99.90;;;;;;5034174;28;20152;-61
2022/04/20 01:31:17;;;;;;;5.07;3.60;;;10.60;99.90;;;;;;5034298;28;20029;-61
2022/04/20 01:33:44;;;;;;;5.25;3.80;;;10.60;99.90;;;;;;5033967;28;20018;-61
2022/04/20 01:36:11;;;;;;;6.55;5.43;;;10.60;99.90;;;;;;5034017;28;20032;-62
2022/04/20 01:38:38;;;;;;;12.82;10.50;;;10.70;99.90;;;;;;5034258;28;20025;-62
2022/04/20 01:41:04;;;;;;;7.85;6.45;;;10.40;99.90;;;;;;5032854;28;20025;-63
2022/04/20 01:43:30;;;;;;;9.70;8.40;;;10.30;99.90;;;;;;5034014;28;20029;-63
2022/04/20 01:45:56;;;;;;;11.02;9.02;;;10.30;99.90;;;;;;5034123;28;20353;-62
2022/04/20 01:48:22;;;;;;;15.82;10.52;;;10.20;99.90;;;;;;5034220;28;20030;-63
2022/04/20 01:53:32;;;;;;;10.43;7.25;;;10.10;99.90;;;;;;5033951;28;20036;-63
2022/04/20 01:56:03;;;;;;;10.73;7.35;;;10.20;99.90;;;;;;5033651;28;20108;-63
2022/04/20 01:58:29;;;;;;;8.27;5.68;;;10.20;99.90;;;;;;5033626;28;20460;-61
2022/04/20 02:00:54;;;;;;;8.07;5.90;;;10.30;99.90;;;;;;5033765;28;20117;-63
2022/04/20 02:03:20;;;;;;;8.38;6.22;;;10.40;99.90;;;;;;5033635;28;20431;-63
2022/04/20 02:05:46;;;;;;;5.82;4.95;;;10.50;99.90;;;;;;5033591;28;20534;-62
2022/04/20 02:08:12;;;;;;;7.05;5.85;;;10.50;99.90;;;;;;5033476;28;20498;-63
2022/04/20 02:10:37;;;;;;;6.07;4.63;;;10.50;99.90;;;;;;5033179;28;20100;-62
2022/04/20 02:13:03;;;;;;;7.72;6.03;;;10.40;99.90;;;;;;5033464;28;20387;-63
2022/04/20 02:15:29;;;;;;;5.65;4.28;;;10.30;99.90;;;;;;5033442;28;20049;-63
2022/04/20 02:17:54;;;;;;;5.97;4.80;;;10.20;99.90;;;;;;5033075;28;20034;-62
2022/04/20 02:20:21;;;;;;;6.80;6.10;;;10.20;99.90;;;;;;5033520;28;20033;-63
2022/04/20 02:22:46;;;;;;;5.05;4.50;;;10.20;99.90;;;;;;5033286;28;20024;-60
2022/04/20 02:25:12;;;;;;;5.82;4.15;;;10.10;99.90;;;;;;5032995;28;20360;-61
2022/04/20 02:27:38;;;;;;;4.93;4.40;;;10.10;99.90;;;;;;5033258;28;20033;-62
2022/04/20 02:30:05;;;;;;;4.28;3.88;;;10.20;99.90;;;;;;5033145;28;20079;-62
2022/04/20 02:32:30;;;;;;;6.55;4.60;;;10.20;99.90;;;;;;5033163;28;20018;-61
2022/04/20 02:34:56;;;;;;;5.18;4.20;;;10.20;99.90;;;;;;5033162;28;20379;-63
2022/04/20 02:37:23;;;;;;;4.78;3.90;;;10.20;99.90;;;;;;5033153;28;20025;-62
2022/04/20 02:39:49;;;;;;;3.20;2.90;;;10.20;99.90;;;;;;5032921;28;20017;-63
2022/04/20 02:42:17;;;;;;;5.93;5.18;;;10.20;99.90;;;;;;5033173;28;20083;-63
2022/04/20 02:44:43;;;;;;;5.90;5.30;;;10.20;99.90;;;;;;5033117;28;20025;-61
2022/04/20 02:47:09;;;;;;;5.47;4.25;;;10.00;99.90;;;;;;5033033;28;20143;-63
2022/04/20 02:49:35;;;;;;;6.60;5.30;;;10.00;99.90;;;;;;5032984;28;20056;-61
2022/04/20 02:52:02;;;;;;;6.43;5.78;;;10.00;99.90;;;;;;5034832;28;20495;-62
2022/04/20 02:54:29;;;;;;;7.25;6.18;;;9.80;99.90;;;;;;5036830;28;20018;-63
2022/04/20 02:56:55;;;;;;;5.55;4.93;;;9.70;99.90;;;;;;5036925;28;20034;-62
2022/04/20 02:59:21;;;;;;;6.47;5.32;;;9.60;99.90;;;;;;5036995;28;20124;-61
2022/04/20 03:01:46;;;;;;;4.72;4.32;;;9.50;99.90;;;;;;5037204;28;20498;-61
2022/04/20 03:04:12;;;;;;;4.28;3.63;;;9.30;99.90;;;;;;5036796;28;20468;-61
2022/04/20 03:06:38;;;;;;;4.40;4.00;;;9.30;99.90;;;;;;5037022;28;20076;-61
2022/04/20 03:09:04;;;;;;;4.35;3.83;;;9.30;99.90;;;;;;5036599;28;20049;-63
2022/04/20 03:11:29;;;;;;;3.65;3.10;;;9.40;99.90;;;;;;5036691;28;20017;-61
2022/04/20 03:13:56;;;;;;;3.45;2.92;;;9.30;99.90;;;;;;5036688;28;20453;-62
2022/04/20 03:16:22;;;;;;;3.92;3.53;;;9.20;99.90;;;;;;5036876;28;20091;-62
2022/04/20 03:18:48;;;;;;;2.53;2.20;;;9.20;99.90;;;;;;5036270;28;20120;-62
2022/04/20 03:21:14;;;;;;;2.85;2.58;;;9.10;99.90;;;;;;5036737;28;20025;-61
2022/04/20 03:23:40;;;;;;;3.25;2.95;;;9.10;99.90;;;;;;5036363;28;20022;-63
2022/04/20 03:26:06;;;;;;;2.78;2.58;;;9.10;99.90;;;;;;5036766;28;20021;-63
2022/04/20 03:28:32;;;;;;;3.55;3.03;;;9.10;99.90;;;;;;5036712;28;20118;-62
2022/04/20 03:30:59;;;;;;;2.70;2.20;;;8.90;99.90;;;;;;5036238;28;20022;-63
2022/04/20 03:33:25;;;;;;;4.15;2.30;;;8.90;99.90;;;;;;5036325;28;20384;-62
2022/04/20 03:35:51;;;;;;;1.95;1.80;;;8.80;99.90;;;;;;5036221;28;20026;-62
2022/04/20 03:38:17;;;;;;;3.53;2.75;;;9.00;99.90;;;;;;5036302;28;20034;-62
2022/04/20 03:40:42;;;;;;;2.50;2.30;;;9.00;99.90;;;;;;5036213;28;20028;-63
2022/04/20 03:43:08;;;;;;;3.72;2.30;;;9.10;99.90;;;;;;5036066;28;20026;-62
2022/04/20 03:45:34;;;;;;;2.95;2.70;;;9.10;99.90;;;;;;5036297;28;20075;-61
2022/04/20 03:48:00;;;;;;;3.38;2.33;;;9.00;99.90;;;;;;5036055;28;20057;-61
2022/04/20 03:50:26;;;;;;;3.33;2.85;;;9.00;99.90;;;;;;5035929;28;20032;-62
2022/04/20 03:52:52;;;;;;;4.25;3.00;;;8.90;99.90;;;;;;5035868;28;20029;-62
2022/04/20 03:55:18;;;;;;;1.90;1.80;;;9.00;99.90;;;;;;5036200;28;20028;-62
2022/04/20 03:57:43;;;;;;;2.15;1.95;;;9.00;99.90;;;;;;5035794;28;20361;-62
2022/04/20 04:00:09;;;;;;;2.10;1.60;;;9.20;99.90;;;;;;5036062;28;20049;-61
2022/04/20 04:02:35;;;;;;;4.93;3.47;;;9.10;99.90;;;;;;5035386;28;20021;-63
2022/04/20 04:05:01;;;;;;;2.05;1.80;;;9.20;99.90;;;;;;5035347;28;20029;-62
2022/04/20 04:07:27;;;;;;;1.88;1.38;;;9.10;99.90;;;;;;5035614;28;20084;-63
2022/04/20 04:09:52;;;;;;;3.03;2.72;;;9.00;99.90;;;;;;5035609;28;20021;-62
2022/04/20 04:12:23;;;;;;;3.58;2.83;;;8.90;99.90;;;;;;5035637;28;20022;-62
2022/04/20 04:14:49;;;;;;;1.33;1.23;;;8.80;99.90;;;;;;5035371;28;20041;-61
2022/04/20 04:17:15;;;;;;;1.50;1.40;;;8.80;99.90;;;;;;5035451;28;20027;-62
2022/04/20 04:19:40;;;;;;;1.60;1.40;;;8.90;99.90;;;;;;5035174;28;20395;-61
2022/04/20 04:22:07;;;;;;;2.28;1.90;;;9.00;99.90;;;;;;5035341;28;20064;-62
2022/04/20 04:24:36;;;;;;;2.15;1.92;;;9.10;99.90;;;;;;5035665;28;20031;-62
2022/04/20 04:27:03;;;;;;;1.88;1.65;;;9.20;99.90;;;;;;5035258;28;20033;-63
2022/04/20 04:29:31;;;;;;;2.03;1.80;;;9.20;99.90;;;;;;5035107;28;20068;-61
2022/04/20 04:31:57;;;;;;;4.15;2.38;;;9.10;99.90;;;;;;5035360;28;20017;-62
2022/04/20 04:34:22;;;;;;;3.35;2.35;;;9.10;99.90;;;;;;5035005;28;20024;-60
2022/04/20 04:36:48;;;;;;;3.03;2.10;;;9.10;99.90;;;;;;5035059;28;20029;-60
2022/04/20 04:39:17;;;;;;;3.42;2.35;;;9.10;99.90;;;;;;5035150;28;20030;-61
2022/04/20 04:41:44;;;;;;;3.42;2.40;;;9.10;99.90;;;;;;5035322;28;20075;-61
2022/04/20 04:44:09;;;;;;;3.15;2.85;;;9.10;99.90;;;;;;5034866;28;20022;-60
2022/04/20 04:49:19;;;;;;;12.45;10.43;;;8.80;99.90;;;;;;5034635;28;20087;-60
2022/04/20 04:51:45;;;;;;;8.48;6.75;;;8.70;99.90;;;;;;5034807;28;20435;-60
2022/04/20 04:54:11;;;;;;;7.53;6.75;;;8.60;99.90;;;;;;5035267;28;20056;-61
2022/04/20 04:56:36;;;;;;;5.60;5.10;;;8.70;99.90;;;;;;5034972;28;20025;-61
2022/04/20 04:59:02;;;;;;;4.97;4.47;;;8.80;99.90;;;;;;5033952;28;20384;-57
2022/04/20 05:01:28;;;;;;;4.47;4.07;;;8.90;99.90;;;;;;5041215;28;20146;-61
2022/04/20 05:03:53;;;;;;;4.22;3.83;;;9.00;99.90;;;;;;5043053;28;20487;-61
2022/04/20 05:06:19;;;;;;;6.63;5.57;;;9.00;99.90;;;;;;5031805;28;20260;-61
2022/04/20 05:08:45;;;;;;;4.05;3.60;;;8.90;99.90;;;;;;5050335;28;20146;-59
2022/04/20 05:11:11;;;;;;;4.25;3.75;;;9.00;99.90;;;;;;5042512;28;20082;-64
2022/04/20 05:13:36;;;;;;;5.82;4.38;;;9.10;99.90;;;;;;5037647;28;20026;-59
2022/04/20 05:16:02;;;;;;;5.43;4.55;;;9.00;99.90;;;;;;5039839;28;20049;-60
2022/04/20 05:18:28;;;;;;;7.82;5.55;;;9.00;99.90;;;;;;5036694;28;20057;-62
2022/04/20 05:20:53;;;;;;;5.45;4.65;;;8.90;99.90;;;;;;5045030;28;20033;-60
2022/04/20 05:23:20;;;;;;;7.07;5.10;;;8.90;99.90;;;;;;5038780;28;20029;-60
2022/04/20 05:25:46;;;;;;;5.97;4.28;;;9.00;99.90;;;;;;5036958;28;20385;-61
2022/04/20 05:28:11;;;;;;;5.55;3.78;;;8.90;99.90;;;;;;5034040;28;20044;-62
2022/04/20 05:30:37;;;;;;;4.63;3.22;;;8.90;99.90;;;;;;5037993;28;20029;-64
2022/04/20 05:33:04;;;;;;;6.30;5.03;;;8.90;99.90;;;;;;5038919;28;20037;-61
2022/04/20 05:35:29;;;;;;;4.03;3.20;;;8.80;99.90;;;;;;5044929;28;20029;-61
2022/04/20 05:43:25;;;;;;;3.30;2.88;;;9.00;99.90;;;;;;5039791;28;20544;-61
2022/04/20 05:45:54;;;;;;;3.58;2.65;;;8.90;99.90;;;;;;5040879;28;20033;-61
2022/04/20 05:48:20;;;;;;;3.15;2.33;;;9.00;99.90;;;;;;5041686;28;20033;-63
2022/04/20 05:50:46;;;;;;;2.90;2.65;;;9.10;99.90;;;;;;5046972;28;20033;-64
2022/04/20 05:53:12;;;;;;;4.72;3.38;;;9.20;99.90;;;;;;5040458;28;20487;-62
2022/04/20 05:55:38;;;;;;;5.90;4.93;;;9.20;99.90;;;;;;5035767;28;20036;-62
2022/04/20 05:58:04;;;;;;;4.35;3.25;;;9.10;99.90;;;;;;5037759;28;20094;-65
2022/04/20 06:00:31;;;;;;;4.55;3.80;;;9.10;99.90;;;;;;5032632;28;20388;-66
2022/04/20 06:02:57;;;;;;;5.78;4.28;;;9.10;99.90;;;;;;5030751;28;20028;-62
2022/04/20 06:05:23;;;;;;;3.20;2.83;;;9.10;99.90;;;;;;5038119;28;20032;-61
2022/04/20 06:07:49;;;;;;;3.97;3.47;;;9.10;99.90;;;;;;5047667;28;20037;-63
2022/04/20 06:10:15;;;;;;;3.65;3.22;;;9.10;99.90;;;;;;5032541;28;20053;-66
2022/04/20 06:12:41;;;;;;;3.10;2.55;;;9.00;99.90;;;;;;5034936;28;20029;-61
2022/04/20 06:15:08;;;;;;;2.60;2.40;;;9.00;99.90;;;;;;5037074;28;20038;-66
2022/04/20 06:17:35;;;;;;;4.38;3.67;;;9.10;99.90;;;;;;5036009;28;20025;-71
2022/04/20 06:20:08;;;;;;;3.20;2.90;;;9.10;99.90;;;;;;5034743;28;20045;-65
2022/04/20 06:23:04;;;;;;;4.63;3.38;;;9.10;99.90;;;;;;5033837;28;20033;-70
2022/04/20 06:25:31;;;;;;;3.65;3.00;;;9.10;99.90;;;;;;5053020;28;20020;-66
2022/04/20 06:27:57;;;;;;;3.50;2.88;;;9.20;99.90;;;;;;5048089;28;20032;-66
2022/04/20 06:30:43;;;;;;;10.82;8.07;;;9.20;99.90;;;;;;5050628;28;20475;-67
2022/04/20 06:33:09;;;;;;;5.68;4.43;;;9.20;99.90;;;;;;5056595;28;20025;-63
2022/04/20 06:35:34;;;;;;;5.32;3.97;;;9.20;99.90;;;;;;5054528;28;20023;-67
2022/04/20 06:38:00;;;;;;;6.35;4.80;;;9.30;99.90;;;;;;5048378;28;20529;-61
2022/04/20 06:40:29;;;;;;;5.88;4.45;;;9.20;99.90;;;;;;5055351;28;20025;-65
2022/04/20 06:42:55;;;;;;;5.47;3.88;;;9.10;99.90;;;;;;5057400;28;20043;-64
2022/04/20 06:45:20;;;;;;;5.07;3.40;;;9.30;99.90;;;;;;5040734;28;20037;-60
2022/04/20 06:47:46;;;;;;;4.07;3.30;;;9.40;99.90;;;;;;5048091;28;20029;-62
2022/04/20 06:50:12;;;;;;;4.32;3.25;;;9.20;99.90;;;;;;5049411;28;20034;-62
2022/04/20 07:00:55;;;;;;;8.00;5.97;;;9.10;99.90;;;;;;5050760;28;20405;-60
2022/04/20 07:03:21;;;;;;;6.95;5.00;;;9.30;99.90;;;;;;5051351;28;20024;-60
2022/04/20 07:05:47;;;;;;;4.18;3.40;;;9.30;99.90;;;;;;5044821;28;20033;-59
2022/04/20 07:08:13;;;;;;;4.13;2.75;;;9.30;99.90;;;;;;5055980;28;20036;-61
2022/04/20 07:10:39;;;;;;;3.85;2.80;;;9.40;99.90;;;;;;5057263;28;20028;-66
2022/04/20 07:13:05;;;;;;;3.90;3.03;;;9.50;99.90;;;;;;5065676;28;20518;-62
2022/04/20 07:15:31;;;;;;;3.38;2.60;;;9.60;99.90;;;;;;5064275;28;20100;-67
2022/04/20 07:17:57;;;;;;;4.28;3.28;;;9.70;99.90;;;;;;5045479;28;20404;-62
2022/04/20 07:20:22;;;;;;;3.45;3.15;;;9.80;99.90;;;;;;5047911;28;20024;-61
2022/04/20 07:22:50;;;;;;;3.85;3.00;;;9.60;99.90;;;;;;5047825;28;20443;-66
2022/04/20 07:25:16;;;;;;;2.90;2.47;;;9.50;99.90;;;;;;5042233;28;20076;-60
2022/04/20 07:27:43;;;;;;;3.50;2.63;;;9.40;99.90;;;;;;5039802;28;20087;-61
2022/04/20 07:30:09;;;;;;;2.72;2.05;;;9.30;99.90;;;;;;5037423;28;20013;-61
2022/04/20 07:32:36;;;;;;;4.03;2.33;;;9.00;99.90;;;;;;5043490;28;20128;-61
2022/04/20 07:35:02;;;;;;;2.63;2.20;;;9.00;99.90;;;;;;5045047;28;20439;-61
2022/04/20 07:37:27;;;;;;;2.80;2.08;;;9.00;99.90;;;;;;5046943;28;20025;-61
2022/04/20 07:39:53;;;;;;;3.13;2.20;;;8.90;99.90;;;;;;5050395;28;20430;-61
2022/04/20 07:42:21;;;;;;;2.90;2.33;;;8.90;99.90;;;;;;5051006;28;20061;-60
2022/04/20 07:44:47;;;;;;;4.30;3.10;;;9.00;99.90;;;;;;5050813;28;20537;-61
2022/04/20 07:47:12;;;;;;;4.38;2.50;;;9.10;99.90;;;;;;5052459;28;20056;-59
2022/04/20 07:52:23;;;;;;;6.93;4.13;;;9.50;99.90;;;;;;5047427;28;20040;-57
2022/04/20 07:54:49;;;;;;;6.40;5.10;;;9.60;99.90;;;;;;5041207;28;20025;-56
2022/04/20 07:57:15;;;;;;;8.45;6.07;;;9.60;99.90;;;;;;5050121;28;20036;-56
2022/04/20 07:59:44;;;;;;;9.00;6.90;;;9.70;99.90;;;;;;5052467;28;20028;-57
2022/04/20 08:02:10;;;;;;;5.90;4.85;;;9.60;99.90;;;;;;5052326;28;20049;-61
2022/04/20 08:04:36;;;;;;;8.70;6.65;;;9.70;99.90;;;;;;5052503;28;20447;-59
2022/04/20 08:07:02;;;;;;;5.68;4.10;;;10.00;99.90;;;;;;5045713;28;20039;-60
2022/04/20 08:09:28;;;;;;;7.20;4.75;;;10.10;99.90;;;;;;5038132;28;20033;-60
2022/04/20 08:11:53;;;;;;;5.88;5.15;;;10.20;99.90;;;;;;5032435;28;20472;-59
2022/04/20 08:14:20;;;;;;;5.32;4.28;;;10.40;99.90;;;;;;5032351;28;20120;-55
2022/04/20 08:16:47;;;;;;;4.85;4.10;;;10.40;99.90;;;;;;5036462;28;20068;-59
2022/04/20 08:19:12;;;;;;;4.28;3.88;;;10.30;99.90;;;;;;5044045;28;20037;-57
2022/04/20 08:21:38;;;;;;;4.78;4.32;;;10.30;99.90;;;;;;5051560;28;20029;-61
2022/04/20 08:24:04;;;;;;;5.18;4.20;;;10.40;99.90;;;;;;5035613;28;20464;-57
2022/04/20 08:26:30;;;;;;;5.32;4.60;;;10.30;99.90;;;;;;5051767;28;20022;-60
2022/04/20 08:28:56;;;;;;;6.32;5.53;;;10.20;99.90;;;;;;5045668;28;20094;-58
2022/04/20 08:31:22;;;;;;;9.02;6.90;;;10.20;99.90;;;;;;5045280;28;20097;-58
2022/04/20 08:33:48;;;;;;;6.95;5.43;;;10.00;99.90;;;;;;5036561;28;20146;-57
2022/04/20 08:36:15;;;;;;;7.93;6.38;;;10.00;99.90;;;;;;5041157;28;20492;-58
2022/04/20 08:38:44;;;;;;;7.88;6.22;;;10.10;99.90;;;;;;5034357;28;20116;-56
2022/04/20 08:41:14;;;;;;;9.57;7.35;;;10.10;99.90;;;;;;5036456;28;20029;-58
2022/04/20 08:43:43;;;;;;;6.97;5.50;;;10.00;99.90;;;;;;5045657;28;20087;-60
2022/04/20 08:46:12;;;;;;;10.15;7.13;;;9.90;99.90;;;;;;5033529;28;20048;-57
2022/04/20 08:48:38;;;;;;;12.05;7.78;;;10.00;99.90;;;;;;5035082;28;20398;-61
2022/04/20 08:51:06;;;;;;;8.48;6.28;;;10.10;99.90;;;;;;5041511;28;20028;-56
2022/04/20 08:53:32;;;;;;;8.02;5.65;;;10.10;99.90;;;;;;5037277;28;20029;-58
2022/04/20 08:58:48;;;;;;;10.52;7.68;;;10.50;99.90;;;;;;5042145;28;20037;-60
2022/04/20 09:01:16;;;;;;;8.50;7.68;;;10.60;99.90;;;;;;5040749;28;20021;-56
2022/04/20 09:03:44;;;;;;;9.15;7.88;;;10.90;99.90;;;;;;5038433;28;20048;-57
2022/04/20 09:06:10;;;;;;;8.27;6.55;;;11.00;99.90;;;;;;5039077;28;20021;-59
2022/04/20 09:08:38;;;;;;;8.73;7.47;;;11.10;99.90;;;;;;5039604;28;20056;-58
2022/04/20 09:11:04;;;;;;;10.15;8.88;;;11.30;99.90;;;;;;5038076;28;20036;-59
2022/04/20 09:13:41;;;;;;;9.73;7.82;;;11.10;99.90;;;;;;5037841;28;20036;-56
2022/04/20 09:16:13;;;;;;;8.45;6.85;;;10.90;99.90;;;;;;5046416;28;20029;-58
2022/04/20 09:18:42;;;;;;;7.00;5.50;;;10.70;99.90;;;;;;5046463;28;20041;-60
2022/04/20 09:21:13;;;;;;;7.50;6.32;;;10.60;99.90;;;;;;5031388;28;20383;-58
2022/04/20 09:23:39;;;;;;;5.97;5.32;;;10.70;99.90;;;;;;5035974;28;20025;-56
2022/04/20 09:26:16;;;;;;;6.15;5.55;;;10.60;99.90;;;;;;5041143;28;20033;-60
2022/04/20 09:29:08;;;;;;;8.35;6.55;;;10.70;99.90;;;;;;5036255;28;20069;-60
2022/04/20 09:31:44;;;;;;;6.43;4.85;;;10.90;99.90;;;;;;5035427;28;20032;-61
2022/04/20 09:34:32;;;;;;;7.72;6.30;;;10.90;99.90;;;;;;5040061;28;20094;-59
2022/04/20 09:36:58;;;;;;;7.93;5.75;;;11.20;99.90;;;;;;5036058;28;20037;-58
2022/04/20 09:39:30;;;;;;;7.72;6.22;;;11.40;99.90;;;;;;5043739;28;20035;-60
2022/04/20 09:42:02;;;;;;;6.78;5.93;;;11.60;99.90;;;;;;5026897;28;20028;-61
2022/04/20 09:44:29;;;;;;;7.00;6.30;;;11.80;99.90;;;;;;5038524;28;20040;-60
2022/04/20 09:50:02;;;;;;;7.93;6.97;;;12.10;99.90;;;;;;5043133;28;20647;-60
2022/04/20 09:52:47;;;;;;;8.23;6.55;;;12.10;99.90;;;;;;5025945;28;20064;-59
2022/04/20 09:55:14;;;;;;;7.05;6.00;;;12.10;99.90;;;;;;5033977;28;20043;-62
2022/04/20 09:57:40;;;;;;;10.68;9.48;;;12.20;99.60;;;;;;5040116;28;20597;-61
2022/04/20 10:00:14;;;;;;;18.92;13.02;;;12.30;99.10;;;;;;5040999;28;20082;-61
2022/04/20 10:02:47;;;;;;;12.45;9.23;;;11.90;99.70;;;;;;5032264;28;20049;-61
2022/04/20 10:05:15;;;;;;;13.68;9.30;;;11.60;99.90;;;;;;5046414;28;20079;-61
2022/04/20 10:07:41;;;;;;;12.25;9.77;;;11.60;99.90;;;;;;5036551;28;20647;-60
2022/04/20 10:10:07;;;;;;;12.80;9.52;;;11.70;99.90;;;;;;5046774;28;20036;-62
2022/04/20 10:12:37;;;;;;;20.00;14.00;;;11.70;99.90;;;;;;5049638;28;20103;-61
2022/04/20 10:17:51;;;;;;;11.73;10.20;;;12.00;99.90;;;;;;5052466;28;20040;-60
2022/04/20 10:20:20;;;;;;;12.98;10.20;;;11.70;99.90;;;;;;5045596;28;20475;-58
2022/04/20 10:22:47;;;;;;;11.85;10.52;;;11.60;99.90;;;;;;5036959;28;20027;-58
2022/04/20 10:25:13;;;;;;;11.27;10.07;;;11.50;99.90;;;;;;5047420;28;20079;-59
2022/04/20 10:27:57;;;;;;;10.82;9.02;;;11.20;99.90;;;;;;5050942;28;20119;-63
2022/04/20 10:30:46;;;;;;;12.63;8.95;;;10.90;99.90;;;;;;5040309;28;20029;-61
2022/04/20 10:33:16;;;;;;;10.93;8.73;;;10.80;99.90;;;;;;5038849;28;20488;-60
2022/04/20 10:36:04;;;;;;;14.55;11.55;;;10.70;99.90;;;;;;5036955;28;20606;-61
2022/04/20 10:38:31;;;;;;;39.45;26.33;;;10.90;99.90;;;;;;5045222;28;20025;-62
2022/04/20 10:41:19;;;;;;;44.40;29.08;;;11.10;99.90;;;;;;5039427;28;20025;-56
2022/04/20 10:43:48;;;;;;;57.35;36.40;;;11.10;99.90;;;;;;5044948;28;20021;-60
2022/04/20 10:46:18;;;;;;;45.30;29.13;;;11.20;99.90;;;;;;5048289;28;20021;-59
2022/04/20 10:48:52;;;;;;;32.65;23.35;;;11.30;99.90;;;;;;5045855;28;20037;-58
2022/04/20 10:51:23;;;;;;;23.65;17.45;;;11.30;99.90;;;;;;5398292;22;20683;-61
2022/04/20 10:53:51;;;;;;;15.00;11.93;;;11.20;99.90;;;;;;5013264;28;20200;-63
2022/04/20 10:56:19;;;;;;;16.48;13.93;;;11.20;99.90;;;;;;5013569;28;20026;-61
2022/04/20 10:59:07;;;;;;;13.55;11.05;;;11.20;99.90;;;;;;5013552;28;20030;-61
2022/04/20 11:01:59;;;;;;;13.75;10.50;;;11.30;99.90;;;;;;5006777;28;20384;-62
2022/04/20 11:04:46;;;;;;;16.63;11.90;;;11.70;99.90;;;;;;5012634;28;20395;-61
2022/04/20 11:07:17;;;;;;;11.27;9.23;;;11.90;99.90;;;;;;5009685;28;20521;-62
2022/04/20 11:09:44;;;;;;;9.88;8.40;;;12.20;99.90;;;;;;5011714;28;20026;-61
2022/04/20 11:21:07;;;;;;;10.23;8.95;;;13.30;94.80;;;;;;5008209;28;20084;-66
2022/04/20 11:23:59;;;;;;;9.45;8.55;;;13.60;95.40;;;;;;5014895;28;20587;-66
2022/04/20 11:26:39;;;;;;;11.00;9.88;;;13.70;96.20;;;;;;5009417;28;20044;-62
2022/04/20 11:29:18;;;;;;;15.00;11.80;;;14.00;91.70;;;;;;5007210;28;20128;-67
2022/04/20 11:31:48;;;;;;;9.38;8.38;;;14.80;97.00;;;;;;5005165;28;20041;-65
2022/04/20 11:34:16;;;;;;;10.48;8.00;;;15.60;88.30;;;;;;5014083;28;20026;-66
2022/04/20 11:36:44;;;;;;;7.30;6.07;;;16.00;74.40;;;;;;5001432;28;20021;-63
2022/04/20 11:39:11;;;;;;;6.30;5.72;;;16.30;76.90;;;;;;5001898;28;20113;-64
2022/04/20 11:41:46;;;;;;;7.80;7.10;;;16.60;72.10;;;;;;5002490;28;20085;-64
2022/04/20 11:44:22;;;;;;;6.20;5.60;;;16.90;67.00;;;;;;5001391;28;20160;-64
2022/04/20 11:46:53;;;;;;;9.52;8.63;;;17.10;69.40;;;;;;4998993;28;20035;-60
2022/04/20 11:49:30;;;;;;;9.18;8.10;;;16.70;68.50;;;;;;5001085;28;20053;-64
2022/04/20 11:51:59;;;;;;;12.02;10.80;;;16.20;68.40;;;;;;5000188;28;20057;-65
2022/04/20 11:54:27;;;;;;;13.10;11.75;;;15.50;72.50;;;;;;5000130;28;21516;-59
2022/04/20 11:56:53;;;;;;;14.25;10.65;;;14.90;73.40;;;;;;4998194;28;20023;-67
2022/04/20 11:59:21;;;;;;;8.52;7.72;;;14.90;77.00;;;;;;4998942;28;20050;-58
2022/04/20 12:01:47;;;;;;;7.00;6.40;;;15.40;74.70;;;;;;4994340;28;20041;-60
2022/04/20 12:04:20;;;;;;;11.50;10.38;;;16.10;78.00;;;;;;4992518;28;20134;-62
2022/04/20 12:06:55;;;;;;;11.80;10.60;;;16.20;70.20;;;;;;4993182;28;20023;-56
2022/04/20 12:09:28;;;;;;;8.55;7.75;;;15.50;68.00;;;;;;4993231;28;20034;-63
2022/04/20 12:11:59;;;;;;;9.35;8.45;;;15.40;70.70;;;;;;4991526;28;20428;-62
2022/04/20 12:14:35;;;;;;;8.35;6.82;;;15.50;70.30;;;;;;4991288;28;20512;-64
2022/04/20 12:17:05;;;;;;;7.75;6.75;;;15.50;72.20;;;;;;4987598;28;20037;-64
2022/04/20 12:19:31;;;;;;;8.40;7.60;;;15.90;72.20;;;;;;4992455;28;20388;-60
2022/04/20 12:22:09;;;;;;;9.02;6.38;;;16.00;67.40;;;;;;4983456;28;20101;-63
2022/04/20 12:24:37;;;;;;;5.95;5.05;;;16.20;65.90;;;;;;4978307;28;20496;-62
2022/04/20 12:27:04;;;;;;;8.20;6.35;;;16.00;65.20;;;;;;4981121;28;20038;-61
2022/04/20 12:29:33;;;;;;;6.03;5.43;;;15.90;65.50;;;;;;4984872;28;20354;-63
2022/04/20 12:32:00;;;;;;;8.88;6.55;;;15.60;67.00;;;;;;4973947;28;20029;-63
2022/04/20 12:34:28;;;;;;;5.97;5.38;;;15.50;65.70;;;;;;4980629;28;20026;-60
2022/04/20 12:37:07;;;;;;;9.27;8.38;;;15.50;62.80;;;;;;4988640;28;20045;-61
2022/04/20 12:39:42;;;;;;;7.13;6.53;;;15.70;61.00;;;;;;4982791;28;20045;-60
2022/04/20 12:42:10;;;;;;;5.82;5.25;;;15.60;61.40;;;;;;4990530;28;20406;-61
2022/04/20 12:44:53;;;;;;;5.82;5.32;;;15.50;63.50;;;;;;4987885;28;20077;-64
2022/04/20 12:47:19;;;;;;;7.25;6.55;;;15.50;61.80;;;;;;4974146;28;20034;-64
2022/04/20 12:49:53;;;;;;;6.95;6.25;;;15.50;61.40;;;;;;4974276;28;20062;-60
2022/04/20 12:52:26;;;;;;;12.52;9.30;;;15.60;62.10;;;;;;4972643;28;20047;-64
2022/04/20 12:54:56;;;;;;;10.07;7.13;;;15.50;60.80;;;;;;4973457;28;20027;-59
2022/04/20 13:03:17;;;;;;;7.40;6.43;;;15.30;63.60;;;;;;4972486;28;20029;-61
2022/04/20 13:05:44;;;;;;;7.05;6.10;;;15.20;65.10;;;;;;4972637;28;20042;-61
2022/04/20 13:08:12;;;;;;;6.78;5.55;;;14.80;65.20;;;;;;4972556;28;20030;-58
2022/04/20 13:10:40;;;;;;;6.05;5.55;;;14.80;65.80;;;;;;4973213;28;20485;-60
2022/04/20 13:13:07;;;;;;;6.10;5.45;;;14.90;65.20;;;;;;4973860;28;20027;-61
2022/04/20 13:15:34;;;;;;;5.50;5.00;;;15.50;67.10;;;;;;4973935;28;20035;-59
2022/04/20 13:18:01;;;;;;;4.60;4.03;;;16.30;74.10;;;;;;4974729;28;20030;-60
2022/04/20 13:20:29;;;;;;;4.80;4.20;;;16.80;63.90;;;;;;4974834;28;20026;-61
2022/04/20 13:22:55;;;;;;;5.30;4.90;;;17.20;60.00;;;;;;4975680;28;20457;-62
2022/04/20 13:28:06;;;;;;;4.35;3.95;;;17.10;57.30;;;;;;4975533;28;20038;-59
2022/04/20 13:30:37;;;;;;;5.70;5.20;;;17.10;57.70;;;;;;4975152;28;20019;-64
2022/04/20 13:33:10;;;;;;;9.57;8.40;;;17.20;56.40;;;;;;4975328;28;20094;-61
2022/04/20 13:35:37;;;;;;;12.10;10.73;;;17.10;56.50;;;;;;4974991;28;20037;-58
2022/04/20 13:38:03;;;;;;;19.67;14.63;;;16.90;55.80;;;;;;4975286;28;20062;-62
2022/04/20 13:40:33;;;;;;;21.23;16.25;;;17.00;55.00;;;;;;4975234;28;20015;-63